sensor_id;sensor_type;location;lat;lon;timestamp;temperature;humidity
40828;DHT22;26549;50.918;5.338;2023-06-01T00:01:48;18.60;99.90
40828;DHT22;26549;50.918;5.338;2023-06-01T00:04:14;18.50;99.90
40828;DHT22;26549;50.918;5.338;2023-06-01T00:06:40;18.40;99.90
40828;DHT22;26549;50.918;5.338;2023-06-01T00:09:06;18.00;99.90
40828;DHT22;26549;50.918;5.338;2023-06-01T00:11:32;17.80;99.90
40828;DHT22;26549;50.918;5.338;2023-06-01T00:13:58;17.80;99.90
40828;DHT22;26549;50.918;5.338;2023-06-01T00:16:24;17.60;99.90
40828;DHT22;26549;50.918;5.338;2023-06-01T00:18:51;17.70;99.90
40828;DHT22;26549;50.918;5.338;2023-06-01T00:21:18;17.70;99.90
40828;DHT22;26549;50.918;5.338;2023-06-01T00:23:45;17.60;99.90
40828;DHT22;26549;50.918;5.338;2023-06-01T00:26:11;17.60;99.90
40828;DHT22;26549;50.918;5.338;2023-06-01T00:28:37;17.60;99.90
40828;DHT22;26549;50.918;5.338;2023-06-01T00:31:03;17.40;99.90
40828;DHT22;26549;50.918;5.338;2023-06-01T00:33:29;17.30;99.90
40828;DHT22;26549;50.918;5.338;2023-06-01T00:35:55;17.30;99.90
40828;DHT22;26549;50.918;5.338;2023-06-01T00:38:20;17.30;99.90
40828;DHT22;26549;50.918;5.338;2023-06-01T00:40:46;17.30;99.90
40828;DHT22;26549;50.918;5.338;2023-06-01T00:43:17;17.10;99.90
40828;DHT22;26549;50.918;5.338;2023-06-01T00:45:43;17.20;99.90
40828;DHT22;26549;50.918;5.338;2023-06-01T00:48:10;17.00;99.90
40828;DHT22;26549;50.918;5.338;2023-06-01T00:50:36;17.20;99.90
40828;DHT22;26549;50.918;5.338;2023-06-01T00:53:06;17.00;99.90
40828;DHT22;26549;50.918;5.338;2023-06-01T00:55:33;17.00;99.90
40828;DHT22;26549;50.918;5.338;2023-06-01T00:57:59;16.90;99.90
40828;DHT22;26549;50.918;5.338;2023-06-01T01:00:27;16.90;99.90
40828;DHT22;26549;50.918;5.338;2023-06-01T01:02:54;16.80;99.90
40828;DHT22;26549;50.918;5.338;2023-06-01T01:05:22;16.80;99.90
40828;DHT22;26549;50.918;5.338;2023-06-01T01:08:18;16.80;99.90
40828;DHT22;26549;50.918;5.338;2023-06-01T01:13:21;16.60;99.90
40828;DHT22;26549;50.918;5.338;2023-06-01T01:16:01;16.60;99.90
40828;DHT22;26549;50.918;5.338;2023-06-01T01:18:35;16.50;99.90
40828;DHT22;26549;50.918;5.338;2023-06-01T01:21:04;16.50;99.90
40828;DHT22;26549;50.918;5.338;2023-06-01T01:27:08;16.50;99.90
40828;DHT22;26549;50.918;5.338;2023-06-01T01:29:37;16.50;99.90
40828;DHT22;26549;50.918;5.338;2023-06-01T01:32:06;16.50;99.90
40828;DHT22;26549;50.918;5.338;2023-06-01T01:34:33;16.50;99.90
40828;DHT22;26549;50.918;5.338;2023-06-01T01:37:00;16.50;99.90
40828;DHT22;26549;50.918;5.338;2023-06-01T01:39:26;16.60;99.90
40828;DHT22;26549;50.918;5.338;2023-06-01T01:41:52;16.60;99.90
40828;DHT22;26549;50.918;5.338;2023-06-01T01:44:18;16.40;99.90
40828;DHT22;26549;50.918;5.338;2023-06-01T01:47:02;16.20;99.90
40828;DHT22;26549;50.918;5.338;2023-06-01T01:49:46;16.10;99.90
40828;DHT22;26549;50.918;5.338;2023-06-01T01:52:32;16.00;99.90
40828;DHT22;26549;50.918;5.338;2023-06-01T01:55:01;15.90;99.90
40828;DHT22;26549;50.918;5.338;2023-06-01T01:57:28;16.00;99.90
40828;DHT22;26549;50.918;5.338;2023-06-01T01:59:56;15.90;99.90
40828;DHT22;26549;50.918;5.338;2023-06-01T02:02:22;15.90;99.90
40828;DHT22;26549;50.918;5.338;2023-06-01T02:04:48;15.80;99.90
40828;DHT22;26549;50.918;5.338;2023-06-01T02:07:14;15.70;99.90
40828;DHT22;26549;50.918;5.338;2023-06-01T02:09:41;15.60;99.90
40828;DHT22;26549;50.918;5.338;2023-06-01T02:12:07;15.60;99.90
40828;DHT22;26549;50.918;5.338;2023-06-01T02:14:33;15.70;99.90
40828;DHT22;26549;50.918;5.338;2023-06-01T02:16:59;15.40;99.90
40828;DHT22;26549;50.918;5.338;2023-06-01T02:19:27;15.30;99.90
40828;DHT22;26549;50.918;5.338;2023-06-01T02:21:53;15.30;99.90
40828;DHT22;26549;50.918;5.338;2023-06-01T02:24:18;15.30;99.90
40828;DHT22;26549;50.918;5.338;2023-06-01T02:26:47;15.30;99.90
40828;DHT22;26549;50.918;5.338;2023-06-01T02:29:15;15.20;99.90
40828;DHT22;26549;50.918;5.338;2023-06-01T02:31:41;15.10;99.90
40828;DHT22;26549;50.918;5.338;2023-06-01T02:34:08;15.00;99.90
40828;DHT22;26549;50.918;5.338;2023-06-01T02:36:33;15.00;99.90
40828;DHT22;26549;50.918;5.338;2023-06-01T02:39:00;15.00;99.90
40828;DHT22;26549;50.918;5.338;2023-06-01T02:41:25;15.10;99.90
40828;DHT22;26549;50.918;5.338;2023-06-01T02:43:51;15.00;99.90
40828;DHT22;26549;50.918;5.338;2023-06-01T02:46:18;15.10;99.90
40828;DHT22;26549;50.918;5.338;2023-06-01T02:48:44;15.00;99.90
40828;DHT22;26549;50.918;5.338;2023-06-01T02:51:10;15.00;99.90
40828;DHT22;26549;50.918;5.338;2023-06-01T02:53:36;14.80;99.90
40828;DHT22;26549;50.918;5.338;2023-06-01T02:56:01;14.80;99.90
40828;DHT22;26549;50.918;5.338;2023-06-01T02:58:27;14.60;99.90
40828;DHT22;26549;50.918;5.338;2023-06-01T03:00:55;14.40;99.90
40828;DHT22;26549;50.918;5.338;2023-06-01T03:03:24;14.40;99.90
40828;DHT22;26549;50.918;5.338;2023-06-01T03:05:52;14.50;99.90
40828;DHT22;26549;50.918;5.338;2023-06-01T03:08:18;14.50;99.90
40828;DHT22;26549;50.918;5.338;2023-06-01T03:10:44;14.60;99.90
40828;DHT22;26549;50.918;5.338;2023-06-01T03:13:10;14.60;99.90
40828;DHT22;26549;50.918;5.338;2023-06-01T03:15:36;14.50;99.90
40828;DHT22;26549;50.918;5.338;2023-06-01T03:18:05;14.50;99.90
40828;DHT22;26549;50.918;5.338;2023-06-01T03:20:36;14.50;99.90
40828;DHT22;26549;50.918;5.338;2023-06-01T03:23:02;14.40;99.90
40828;DHT22;26549;50.918;5.338;2023-06-01T03:25:28;14.40;99.90
40828;DHT22;26549;50.918;5.338;2023-06-01T03:27:54;14.30;99.90
40828;DHT22;26549;50.918;5.338;2023-06-01T03:30:20;14.10;99.90
40828;DHT22;26549;50.918;5.338;2023-06-01T03:32:47;14.20;99.90
40828;DHT22;26549;50.918;5.338;2023-06-01T03:35:13;14.30;99.90
40828;DHT22;26549;50.918;5.338;2023-06-01T03:37:40;14.20;99.90
40828;DHT22;26549;50.918;5.338;2023-06-01T03:40:08;14.30;99.90
40828;DHT22;26549;50.918;5.338;2023-06-01T03:42:45;14.50;99.90
40828;DHT22;26549;50.918;5.338;2023-06-01T03:45:12;14.20;99.90
40828;DHT22;26549;50.918;5.338;2023-06-01T03:47:38;14.10;99.90
40828;DHT22;26549;50.918;5.338;2023-06-01T03:50:05;14.10;99.90
40828;DHT22;26549;50.918;5.338;2023-06-01T03:52:32;13.80;99.90
40828;DHT22;26549;50.918;5.338;2023-06-01T03:54:59;13.80;99.90
40828;DHT22;26549;50.918;5.338;2023-06-01T03:57:27;13.90;99.90
40828;DHT22;26549;50.918;5.338;2023-06-01T03:59:54;14.00;99.90
40828;DHT22;26549;50.918;5.338;2023-06-01T04:02:19;14.20;99.90
40828;DHT22;26549;50.918;5.338;2023-06-01T04:04:47;14.10;99.90
40828;DHT22;26549;50.918;5.338;2023-06-01T04:07:13;14.10;99.90
40828;DHT22;26549;50.918;5.338;2023-06-01T04:09:50;14.20;99.90
40828;DHT22;26549;50.918;5.338;2023-06-01T04:12:15;14.10;99.90
40828;DHT22;26549;50.918;5.338;2023-06-01T04:14:41;13.90;99.90
40828;DHT22;26549;50.918;5.338;2023-06-01T04:17:07;13.70;99.90
40828;DHT22;26549;50.918;5.338;2023-06-01T04:19:34;13.40;99.90
40828;DHT22;26549;50.918;5.338;2023-06-01T04:22:00;13.40;99.90
40828;DHT22;26549;50.918;5.338;2023-06-01T04:24:26;13.40;99.90
40828;DHT22;26549;50.918;5.338;2023-06-01T04:26:52;13.40;99.90
40828;DHT22;26549;50.918;5.338;2023-06-01T04:29:18;13.50;99.90
40828;DHT22;26549;50.918;5.338;2023-06-01T04:31:46;13.50;99.90
40828;DHT22;26549;50.918;5.338;2023-06-01T04:34:13;13.50;99.90
40828;DHT22;26549;50.918;5.338;2023-06-01T04:36:39;13.60;99.90
40828;DHT22;26549;50.918;5.338;2023-06-01T04:39:05;13.60;99.90
40828;DHT22;26549;50.918;5.338;2023-06-01T04:41:34;13.60;99.90
40828;DHT22;26549;50.918;5.338;2023-06-01T04:44:05;13.60;99.90
40828;DHT22;26549;50.918;5.338;2023-06-01T04:46:34;13.50;99.90
40828;DHT22;26549;50.918;5.338;2023-06-01T04:49:00;13.50;99.90
40828;DHT22;26549;50.918;5.338;2023-06-01T04:51:27;13.30;99.90
40828;DHT22;26549;50.918;5.338;2023-06-01T04:53:55;13.20;99.90
40828;DHT22;26549;50.918;5.338;2023-06-01T04:56:23;13.30;99.90
40828;DHT22;26549;50.918;5.338;2023-06-01T04:58:57;13.30;99.90
40828;DHT22;26549;50.918;5.338;2023-06-01T05:01:26;13.40;99.90
40828;DHT22;26549;50.918;5.338;2023-06-01T05:03:54;13.50;99.90
40828;DHT22;26549;50.918;5.338;2023-06-01T05:06:21;13.70;99.90
40828;DHT22;26549;50.918;5.338;2023-06-01T05:08:47;13.50;99.90
40828;DHT22;26549;50.918;5.338;2023-06-01T05:11:14;13.30;99.90
40828;DHT22;26549;50.918;5.338;2023-06-01T05:13:42;13.30;99.90
40828;DHT22;26549;50.918;5.338;2023-06-01T05:16:13;13.50;99.90
40828;DHT22;26549;50.918;5.338;2023-06-01T05:18:38;13.70;99.90
40828;DHT22;26549;50.918;5.338;2023-06-01T05:21:05;13.60;99.90
40828;DHT22;26549;50.918;5.338;2023-06-01T05:23:31;13.70;99.90
40828;DHT22;26549;50.918;5.338;2023-06-01T05:25:57;13.30;99.90
40828;DHT22;26549;50.918;5.338;2023-06-01T05:28:32;13.00;99.90
40828;DHT22;26549;50.918;5.338;2023-06-01T05:31:06;13.30;99.90
40828;DHT22;26549;50.918;5.338;2023-06-01T05:33:35;13.20;99.90
40828;DHT22;26549;50.918;5.338;2023-06-01T05:36:01;13.00;99.90
40828;DHT22;26549;50.918;5.338;2023-06-01T05:38:26;12.90;99.90
40828;DHT22;26549;50.918;5.338;2023-06-01T05:40:55;13.10;99.90
40828;DHT22;26549;50.918;5.338;2023-06-01T05:43:30;13.30;99.90
40828;DHT22;26549;50.918;5.338;2023-06-01T05:45:58;13.50;99.90
40828;DHT22;26549;50.918;5.338;2023-06-01T05:48:50;13.40;99.90
40828;DHT22;26549;50.918;5.338;2023-06-01T05:51:37;13.20;99.90
40828;DHT22;26549;50.918;5.338;2023-06-01T05:54:26;13.40;99.90
40828;DHT22;26549;50.918;5.338;2023-06-01T05:56:52;13.40;99.90
40828;DHT22;26549;50.918;5.338;2023-06-01T05:59:36;13.20;99.90
40828;DHT22;26549;50.918;5.338;2023-06-01T06:02:08;13.20;99.90
40828;DHT22;26549;50.918;5.338;2023-06-01T06:04:35;12.90;99.90
40828;DHT22;26549;50.918;5.338;2023-06-01T06:07:04;12.80;99.90
40828;DHT22;26549;50.918;5.338;2023-06-01T06:09:29;12.90;99.90
40828;DHT22;26549;50.918;5.338;2023-06-01T06:11:55;13.00;99.90
40828;DHT22;26549;50.918;5.338;2023-06-01T06:14:22;13.10;99.90
40828;DHT22;26549;50.918;5.338;2023-06-01T06:16:48;13.30;99.90
40828;DHT22;26549;50.918;5.338;2023-06-01T06:19:14;13.20;99.90
40828;DHT22;26549;50.918;5.338;2023-06-01T06:21:42;13.20;99.90
40828;DHT22;26549;50.918;5.338;2023-06-01T06:24:07;13.20;99.90
40828;DHT22;26549;50.918;5.338;2023-06-01T06:26:33;13.20;99.90
40828;DHT22;26549;50.918;5.338;2023-06-01T06:28:59;13.40;99.90
40828;DHT22;26549;50.918;5.338;2023-06-01T06:31:25;13.50;99.90
40828;DHT22;26549;50.918;5.338;2023-06-01T06:33:51;13.80;99.90
40828;DHT22;26549;50.918;5.338;2023-06-01T06:36:17;13.90;99.90
40828;DHT22;26549;50.918;5.338;2023-06-01T06:38:44;14.10;99.90
40828;DHT22;26549;50.918;5.338;2023-06-01T06:41:10;14.20;99.90
40828;DHT22;26549;50.918;5.338;2023-06-01T06:43:36;14.40;99.90
40828;DHT22;26549;50.918;5.338;2023-06-01T06:46:02;14.40;99.90
40828;DHT22;26549;50.918;5.338;2023-06-01T06:48:28;14.20;99.90
40828;DHT22;26549;50.918;5.338;2023-06-01T06:50:54;14.20;99.90
40828;DHT22;26549;50.918;5.338;2023-06-01T06:53:20;14.40;99.90
40828;DHT22;26549;50.918;5.338;2023-06-01T06:55:49;14.20;99.90
40828;DHT22;26549;50.918;5.338;2023-06-01T06:58:14;14.30;99.90
40828;DHT22;26549;50.918;5.338;2023-06-01T07:00:40;14.50;99.90
40828;DHT22;26549;50.918;5.338;2023-06-01T07:03:07;14.70;99.90
40828;DHT22;26549;50.918;5.338;2023-06-01T07:05:32;14.90;99.90
40828;DHT22;26549;50.918;5.338;2023-06-01T07:07:58;15.00;99.90
40828;DHT22;26549;50.918;5.338;2023-06-01T07:10:24;15.00;99.90
40828;DHT22;26549;50.918;5.338;2023-06-01T07:12:51;15.10;99.90
40828;DHT22;26549;50.918;5.338;2023-06-01T07:15:17;15.30;99.90
40828;DHT22;26549;50.918;5.338;2023-06-01T07:17:43;15.00;99.90
40828;DHT22;26549;50.918;5.338;2023-06-01T07:20:09;15.10;99.90
40828;DHT22;26549;50.918;5.338;2023-06-01T07:22:39;14.80;99.90
40828;DHT22;26549;50.918;5.338;2023-06-01T07:25:06;14.50;99.90
40828;DHT22;26549;50.918;5.338;2023-06-01T07:27:32;14.60;99.90
40828;DHT22;26549;50.918;5.338;2023-06-01T07:30:02;14.80;99.90
40828;DHT22;26549;50.918;5.338;2023-06-01T07:32:28;15.00;99.90
40828;DHT22;26549;50.918;5.338;2023-06-01T07:34:54;15.20;99.90
40828;DHT22;26549;50.918;5.338;2023-06-01T07:37:23;15.30;99.90
40828;DHT22;26549;50.918;5.338;2023-06-01T07:39:51;15.20;99.90
40828;DHT22;26549;50.918;5.338;2023-06-01T07:42:17;15.20;99.90
40828;DHT22;26549;50.918;5.338;2023-06-01T07:44:45;15.30;99.90
40828;DHT22;26549;50.918;5.338;2023-06-01T07:47:11;15.20;99.90
40828;DHT22;26549;50.918;5.338;2023-06-01T07:49:36;15.30;99.90
40828;DHT22;26549;50.918;5.338;2023-06-01T07:52:06;15.40;99.90
40828;DHT22;26549;50.918;5.338;2023-06-01T07:54:34;15.30;99.90
40828;DHT22;26549;50.918;5.338;2023-06-01T07:57:03;15.50;99.90
40828;DHT22;26549;50.918;5.338;2023-06-01T07:59:30;15.60;99.90
40828;DHT22;26549;50.918;5.338;2023-06-01T08:01:57;15.50;99.90
40828;DHT22;26549;50.918;5.338;2023-06-01T08:04:24;15.60;99.90
40828;DHT22;26549;50.918;5.338;2023-06-01T08:06:51;15.70;99.90
40828;DHT22;26549;50.918;5.338;2023-06-01T08:09:22;15.60;99.90
40828;DHT22;26549;50.918;5.338;2023-06-01T08:11:49;15.60;99.90
40828;DHT22;26549;50.918;5.338;2023-06-01T08:14:16;15.70;99.90
40828;DHT22;26549;50.918;5.338;2023-06-01T08:16:42;16.00;99.90
40828;DHT22;26549;50.918;5.338;2023-06-01T08:19:08;16.00;99.90
40828;DHT22;26549;50.918;5.338;2023-06-01T08:21:34;15.90;99.90
40828;DHT22;26549;50.918;5.338;2023-06-01T08:24:01;16.00;99.90
40828;DHT22;26549;50.918;5.338;2023-06-01T08:26:29;16.40;99.90
40828;DHT22;26549;50.918;5.338;2023-06-01T08:28:55;16.60;99.90
40828;DHT22;26549;50.918;5.338;2023-06-01T08:31:22;16.90;99.90
40828;DHT22;26549;50.918;5.338;2023-06-01T08:33:49;17.00;99.90
40828;DHT22;26549;50.918;5.338;2023-06-01T08:36:17;17.00;99.90
40828;DHT22;26549;50.918;5.338;2023-06-01T08:38:42;16.60;99.90
40828;DHT22;26549;50.918;5.338;2023-06-01T08:41:20;16.70;99.90
40828;DHT22;26549;50.918;5.338;2023-06-01T08:44:02;17.00;99.90
40828;DHT22;26549;50.918;5.338;2023-06-01T08:46:31;17.30;99.90
40828;DHT22;26549;50.918;5.338;2023-06-01T08:49:00;17.30;99.90
40828;DHT22;26549;50.918;5.338;2023-06-01T08:51:27;17.20;99.90
40828;DHT22;26549;50.918;5.338;2023-06-01T08:53:56;17.10;99.90
40828;DHT22;26549;50.918;5.338;2023-06-01T08:56:23;16.90;99.90
40828;DHT22;26549;50.918;5.338;2023-06-01T08:58:49;17.10;99.90
40828;DHT22;26549;50.918;5.338;2023-06-01T09:01:19;17.20;99.90
40828;DHT22;26549;50.918;5.338;2023-06-01T09:03:48;17.20;99.90
40828;DHT22;26549;50.918;5.338;2023-06-01T09:06:14;17.40;99.90
40828;DHT22;26549;50.918;5.338;2023-06-01T09:08:41;17.60;99.90
40828;DHT22;26549;50.918;5.338;2023-06-01T09:11:07;17.80;99.90
40828;DHT22;26549;50.918;5.338;2023-06-01T09:13:37;17.90;99.90
40828;DHT22;26549;50.918;5.338;2023-06-01T09:16:06;18.00;99.90
40828;DHT22;26549;50.918;5.338;2023-06-01T09:18:32;18.20;99.90
40828;DHT22;26549;50.918;5.338;2023-06-01T09:21:14;17.90;99.90
40828;DHT22;26549;50.918;5.338;2023-06-01T09:23:41;17.90;99.90
40828;DHT22;26549;50.918;5.338;2023-06-01T09:26:17;18.20;99.90
40828;DHT22;26549;50.918;5.338;2023-06-01T09:28:53;18.30;99.90
40828;DHT22;26549;50.918;5.338;2023-06-01T09:31:39;18.20;99.90
40828;DHT22;26549;50.918;5.338;2023-06-01T09:34:13;18.40;99.90
40828;DHT22;26549;50.918;5.338;2023-06-01T09:36:45;18.50;99.90
40828;DHT22;26549;50.918;5.338;2023-06-01T09:39:12;18.60;99.90
40828;DHT22;26549;50.918;5.338;2023-06-01T09:41:56;18.70;98.70
40828;DHT22;26549;50.918;5.338;2023-06-01T09:44:24;18.80;98.70
40828;DHT22;26549;50.918;5.338;2023-06-01T09:46:52;18.90;98.60
40828;DHT22;26549;50.918;5.338;2023-06-01T09:49:26;18.90;98.60
40828;DHT22;26549;50.918;5.338;2023-06-01T09:57:03;18.50;99.80
40828;DHT22;26549;50.918;5.338;2023-06-01T09:59:38;18.70;99.80
40828;DHT22;26549;50.918;5.338;2023-06-01T10:02:07;19.00;99.20
40828;DHT22;26549;50.918;5.338;2023-06-01T10:04:33;19.10;98.80
40828;DHT22;26549;50.918;5.338;2023-06-01T10:07:03;19.30;98.70
40828;DHT22;26549;50.918;5.338;2023-06-01T10:09:31;19.40;97.30
40828;DHT22;26549;50.918;5.338;2023-06-01T10:11:57;19.30;97.90
40828;DHT22;26549;50.918;5.338;2023-06-01T10:14:27;19.10;97.40
40828;DHT22;26549;50.918;5.338;2023-06-01T10:16:53;19.10;97.80
40828;DHT22;26549;50.918;5.338;2023-06-01T10:19:21;19.30;97.30
40828;DHT22;26549;50.918;5.338;2023-06-01T10:21:47;19.40;97.50
40828;DHT22;26549;50.918;5.338;2023-06-01T10:24:13;19.40;96.60
40828;DHT22;26549;50.918;5.338;2023-06-01T10:26:56;19.20;97.60
40828;DHT22;26549;50.918;5.338;2023-06-01T10:29:24;19.20;96.90
40828;DHT22;26549;50.918;5.338;2023-06-01T10:31:49;19.50;96.80
40828;DHT22;26549;50.918;5.338;2023-06-01T10:34:39;19.60;95.60
40828;DHT22;26549;50.918;5.338;2023-06-01T10:39:35;19.90;95.80
40828;DHT22;26549;50.918;5.338;2023-06-01T10:52:28;20.40;94.60
40828;DHT22;26549;50.918;5.338;2023-06-01T10:54:56;20.10;93.70
40828;DHT22;26549;50.918;5.338;2023-06-01T10:57:25;20.00;94.50
40828;DHT22;26549;50.918;5.338;2023-06-01T11:03:03;20.30;94.60
40828;DHT22;26549;50.918;5.338;2023-06-01T11:10:54;20.10;93.70
40828;DHT22;26549;50.918;5.338;2023-06-01T11:13:33;20.00;94.70
40828;DHT22;26549;50.918;5.338;2023-06-01T11:21:20;20.60;94.70
40828;DHT22;26549;50.918;5.338;2023-06-01T11:23:53;20.60;95.00
40828;DHT22;26549;50.918;5.338;2023-06-01T11:26:23;20.90;95.20
40828;DHT22;26549;50.918;5.338;2023-06-01T11:28:58;21.00;94.50
40828;DHT22;26549;50.918;5.338;2023-06-01T11:31:40;20.90;94.80
40828;DHT22;26549;50.918;5.338;2023-06-01T11:34:07;21.10;94.40
40828;DHT22;26549;50.918;5.338;2023-06-01T11:36:38;21.20;93.90
40828;DHT22;26549;50.918;5.338;2023-06-01T11:39:04;21.40;94.10
40828;DHT22;26549;50.918;5.338;2023-06-01T11:41:34;21.30;93.70
40828;DHT22;26549;50.918;5.338;2023-06-01T11:44:00;21.30;93.60
40828;DHT22;26549;50.918;5.338;2023-06-01T11:46:26;21.30;94.30
40828;DHT22;26549;50.918;5.338;2023-06-01T11:49:06;21.40;93.60
40828;DHT22;26549;50.918;5.338;2023-06-01T11:51:36;21.60;93.10
40828;DHT22;26549;50.918;5.338;2023-06-01T11:54:03;21.20;93.30
40828;DHT22;26549;50.918;5.338;2023-06-01T11:56:30;21.30;91.70
40828;DHT22;26549;50.918;5.338;2023-06-01T11:58:58;21.40;92.10
40828;DHT22;26549;50.918;5.338;2023-06-01T12:01:25;21.40;92.20
40828;DHT22;26549;50.918;5.338;2023-06-01T12:03:51;21.50;92.70
40828;DHT22;26549;50.918;5.338;2023-06-01T12:06:23;21.60;92.40
40828;DHT22;26549;50.918;5.338;2023-06-01T12:08:52;21.80;92.40
40828;DHT22;26549;50.918;5.338;2023-06-01T12:11:23;21.80;92.60
40828;DHT22;26549;50.918;5.338;2023-06-01T12:13:52;21.80;92.30
40828;DHT22;26549;50.918;5.338;2023-06-01T12:16:19;21.90;91.30
40828;DHT22;26549;50.918;5.338;2023-06-01T12:18:44;21.90;90.80
40828;DHT22;26549;50.918;5.338;2023-06-01T12:21:11;21.80;91.10
40828;DHT22;26549;50.918;5.338;2023-06-01T12:23:38;21.90;91.10
40828;DHT22;26549;50.918;5.338;2023-06-01T12:26:04;21.90;91.30
40828;DHT22;26549;50.918;5.338;2023-06-01T12:28:47;21.90;90.50
40828;DHT22;26549;50.918;5.338;2023-06-01T12:31:14;21.70;90.90
40828;DHT22;26549;50.918;5.338;2023-06-01T12:33:42;21.90;90.70
40828;DHT22;26549;50.918;5.338;2023-06-01T12:36:10;21.80;90.70
40828;DHT22;26549;50.918;5.338;2023-06-01T12:38:50;21.70;90.70
40828;DHT22;26549;50.918;5.338;2023-06-01T12:41:16;21.60;90.40
40828;DHT22;26549;50.918;5.338;2023-06-01T12:43:47;21.60;90.80
40828;DHT22;26549;50.918;5.338;2023-06-01T12:46:29;21.80;91.30
40828;DHT22;26549;50.918;5.338;2023-06-01T12:49:15;22.00;89.20
40828;DHT22;26549;50.918;5.338;2023-06-01T12:51:43;22.10;90.20
40828;DHT22;26549;50.918;5.338;2023-06-01T12:54:09;22.10;90.60
40828;DHT22;26549;50.918;5.338;2023-06-01T12:56:35;22.10;88.00
40828;DHT22;26549;50.918;5.338;2023-06-01T12:59:01;22.20;90.80
40828;DHT22;26549;50.918;5.338;2023-06-01T13:01:26;22.20;90.10
40828;DHT22;26549;50.918;5.338;2023-06-01T13:03:53;22.20;90.00
40828;DHT22;26549;50.918;5.338;2023-06-01T13:06:19;22.20;90.60
40828;DHT22;26549;50.918;5.338;2023-06-01T13:08:45;22.40;91.10
40828;DHT22;26549;50.918;5.338;2023-06-01T13:11:11;22.50;91.00
40828;DHT22;26549;50.918;5.338;2023-06-01T13:13:37;22.60;89.60
40828;DHT22;26549;50.918;5.338;2023-06-01T13:16:03;22.60;90.00
40828;DHT22;26549;50.918;5.338;2023-06-01T13:18:29;22.40;90.30
40828;DHT22;26549;50.918;5.338;2023-06-01T13:20:55;22.30;91.00
40828;DHT22;26549;50.918;5.338;2023-06-01T13:23:22;22.50;90.40
40828;DHT22;26549;50.918;5.338;2023-06-01T13:25:48;22.60;90.50
40828;DHT22;26549;50.918;5.338;2023-06-01T13:28:13;22.70;90.00
40828;DHT22;26549;50.918;5.338;2023-06-01T13:30:41;22.90;88.30
40828;DHT22;26549;50.918;5.338;2023-06-01T13:33:08;22.90;88.30
40828;DHT22;26549;50.918;5.338;2023-06-01T13:35:34;23.10;88.90
40828;DHT22;26549;50.918;5.338;2023-06-01T13:38:00;23.00;87.70
40828;DHT22;26549;50.918;5.338;2023-06-01T13:40:26;22.90;88.60
40828;DHT22;26549;50.918;5.338;2023-06-01T13:42:52;23.00;88.00
40828;DHT22;26549;50.918;5.338;2023-06-01T13:45:19;22.80;86.40
40828;DHT22;26549;50.918;5.338;2023-06-01T13:47:45;22.80;88.10
40828;DHT22;26549;50.918;5.338;2023-06-01T13:50:12;22.90;88.30
40828;DHT22;26549;50.918;5.338;2023-06-01T13:52:41;22.90;86.00
40828;DHT22;26549;50.918;5.338;2023-06-01T13:55:08;22.90;87.50
40828;DHT22;26549;50.918;5.338;2023-06-01T13:57:35;23.00;86.60
40828;DHT22;26549;50.918;5.338;2023-06-01T14:00:01;22.70;85.70
40828;DHT22;26549;50.918;5.338;2023-06-01T14:02:27;22.60;86.70
40828;DHT22;26549;50.918;5.338;2023-06-01T14:04:53;22.60;87.40
40828;DHT22;26549;50.918;5.338;2023-06-01T14:07:18;22.70;86.30
40828;DHT22;26549;50.918;5.338;2023-06-01T14:09:44;22.70;85.80
40828;DHT22;26549;50.918;5.338;2023-06-01T14:12:10;22.80;88.10
40828;DHT22;26549;50.918;5.338;2023-06-01T14:14:37;22.70;85.50
40828;DHT22;26549;50.918;5.338;2023-06-01T14:17:03;22.60;86.90
40828;DHT22;26549;50.918;5.338;2023-06-01T14:19:28;22.70;86.90
40828;DHT22;26549;50.918;5.338;2023-06-01T14:21:54;22.70;86.40
40828;DHT22;26549;50.918;5.338;2023-06-01T14:24:20;22.80;83.90
40828;DHT22;26549;50.918;5.338;2023-06-01T14:26:46;22.80;87.50
40828;DHT22;26549;50.918;5.338;2023-06-01T14:29:12;22.90;86.60
40828;DHT22;26549;50.918;5.338;2023-06-01T14:31:38;22.80;87.20
40828;DHT22;26549;50.918;5.338;2023-06-01T14:34:03;22.70;87.00
40828;DHT22;26549;50.918;5.338;2023-06-01T14:36:29;22.80;86.50
40828;DHT22;26549;50.918;5.338;2023-06-01T14:38:55;22.80;86.70
40828;DHT22;26549;50.918;5.338;2023-06-01T14:41:21;23.00;86.80
40828;DHT22;26549;50.918;5.338;2023-06-01T14:43:47;23.30;87.20
40828;DHT22;26549;50.918;5.338;2023-06-01T14:46:13;23.40;84.50
40828;DHT22;26549;50.918;5.338;2023-06-01T14:48:39;23.10;84.50
40828;DHT22;26549;50.918;5.338;2023-06-01T14:51:05;22.90;86.40
40828;DHT22;26549;50.918;5.338;2023-06-01T14:53:31;22.80;86.00
40828;DHT22;26549;50.918;5.338;2023-06-01T14:55:56;22.80;87.50
40828;DHT22;26549;50.918;5.338;2023-06-01T14:58:22;22.90;87.30
40828;DHT22;26549;50.918;5.338;2023-06-01T15:00:48;23.00;87.60
40828;DHT22;26549;50.918;5.338;2023-06-01T15:03:14;23.10;87.00
40828;DHT22;26549;50.918;5.338;2023-06-01T15:05:39;23.10;87.70
40828;DHT22;26549;50.918;5.338;2023-06-01T15:08:06;23.10;89.20
40828;DHT22;26549;50.918;5.338;2023-06-01T15:10:32;23.10;87.10
40828;DHT22;26549;50.918;5.338;2023-06-01T15:12:58;23.30;86.60
40828;DHT22;26549;50.918;5.338;2023-06-01T15:15:24;23.40;86.70
40828;DHT22;26549;50.918;5.338;2023-06-01T15:17:51;23.40;85.80
40828;DHT22;26549;50.918;5.338;2023-06-01T15:20:16;23.30;86.50
40828;DHT22;26549;50.918;5.338;2023-06-01T15:22:42;23.40;87.10
40828;DHT22;26549;50.918;5.338;2023-06-01T15:25:08;23.20;86.90
40828;DHT22;26549;50.918;5.338;2023-06-01T15:27:34;23.30;87.80
40828;DHT22;26549;50.918;5.338;2023-06-01T15:30:01;23.40;88.50
40828;DHT22;26549;50.918;5.338;2023-06-01T15:32:27;23.60;86.40
40828;DHT22;26549;50.918;5.338;2023-06-01T15:34:53;23.80;85.20
40828;DHT22;26549;50.918;5.338;2023-06-01T15:37:19;23.80;85.60
40828;DHT22;26549;50.918;5.338;2023-06-01T15:39:45;23.80;85.70
40828;DHT22;26549;50.918;5.338;2023-06-01T15:42:11;23.50;85.90
40828;DHT22;26549;50.918;5.338;2023-06-01T15:44:43;23.40;87.40
40828;DHT22;26549;50.918;5.338;2023-06-01T15:47:10;23.10;87.50
40828;DHT22;26549;50.918;5.338;2023-06-01T15:49:39;23.10;88.20
40828;DHT22;26549;50.918;5.338;2023-06-01T15:52:05;23.20;88.10
40828;DHT22;26549;50.918;5.338;2023-06-01T15:54:31;23.50;87.60
40828;DHT22;26549;50.918;5.338;2023-06-01T15:56:59;23.40;87.90
40828;DHT22;26549;50.918;5.338;2023-06-01T15:59:25;23.40;88.20
40828;DHT22;26549;50.918;5.338;2023-06-01T16:01:53;23.60;87.50
40828;DHT22;26549;50.918;5.338;2023-06-01T16:04:19;23.40;88.30
40828;DHT22;26549;50.918;5.338;2023-06-01T16:06:45;23.50;87.60
40828;DHT22;26549;50.918;5.338;2023-06-01T16:09:11;23.30;85.90
40828;DHT22;26549;50.918;5.338;2023-06-01T16:11:37;23.30;87.20
40828;DHT22;26549;50.918;5.338;2023-06-01T16:14:02;23.40;87.90